sensor_id;sensor_type;location;lat;lon;timestamp;temperature;humidity
41965;DHT22;50120;53.250;8.702;2022-08-30T00:02:00;14.30;99.90
41965;DHT22;50120;53.250;8.702;2022-08-30T00:04:27;14.20;99.90
41965;DHT22;50120;53.250;8.702;2022-08-30T00:06:53;14.20;99.90
41965;DHT22;50120;53.250;8.702;2022-08-30T00:09:21;14.10;99.90
41965;DHT22;50120;53.250;8.702;2022-08-30T00:11:47;14.00;99.90
41965;DHT22;50120;53.250;8.702;2022-08-30T00:14:12;14.00;99.90
41965;DHT22;50120;53.250;8.702;2022-08-30T00:16:38;13.90;99.90
41965;DHT22;50120;53.250;8.702;2022-08-30T00:19:04;13.90;99.90
41965;DHT22;50120;53.250;8.702;2022-08-30T00:21:30;13.80;99.90
41965;DHT22;50120;53.250;8.702;2022-08-30T00:23:56;13.80;99.90
41965;DHT22;50120;53.250;8.702;2022-08-30T00:26:21;13.80;99.90
41965;DHT22;50120;53.250;8.702;2022-08-30T00:28:49;13.70;99.90
41965;DHT22;50120;53.250;8.702;2022-08-30T00:31:15;13.70;99.90
41965;DHT22;50120;53.250;8.702;2022-08-30T00:33:41;13.60;99.90
41965;DHT22;50120;53.250;8.702;2022-08-30T00:36:07;13.60;99.90
41965;DHT22;50120;53.250;8.702;2022-08-30T00:38:35;13.50;99.90
41965;DHT22;50120;53.250;8.702;2022-08-30T00:41:01;13.50;99.90
41965;DHT22;50120;53.250;8.702;2022-08-30T00:43:32;13.40;99.90
41965;DHT22;50120;53.250;8.702;2022-08-30T00:46:00;13.40;99.90
41965;DHT22;50120;53.250;8.702;2022-08-30T00:48:29;13.40;99.90
41965;DHT22;50120;53.250;8.702;2022-08-30T00:51:00;13.30;99.90
41965;DHT22;50120;53.250;8.702;2022-08-30T00:53:34;13.30;99.90
41965;DHT22;50120;53.250;8.702;2022-08-30T00:56:02;13.30;99.90
41965;DHT22;50120;53.250;8.702;2022-08-30T00:58:33;13.20;99.90
41965;DHT22;50120;53.250;8.702;2022-08-30T01:01:01;13.10;99.90
41965;DHT22;50120;53.250;8.702;2022-08-30T01:03:27;13.10;99.90
41965;DHT22;50120;53.250;8.702;2022-08-30T01:05:56;13.10;99.90
41965;DHT22;50120;53.250;8.702;2022-08-30T01:08:23;13.00;99.90
41965;DHT22;50120;53.250;8.702;2022-08-30T01:10:50;13.00;99.90
41965;DHT22;50120;53.250;8.702;2022-08-30T01:13:18;12.90;99.90
41965;DHT22;50120;53.250;8.702;2022-08-30T01:15:44;12.90;99.90
41965;DHT22;50120;53.250;8.702;2022-08-30T01:18:12;12.90;99.90
41965;DHT22;50120;53.250;8.702;2022-08-30T01:21:28;12.80;99.90
41965;DHT22;50120;53.250;8.702;2022-08-30T01:23:56;12.80;99.90
41965;DHT22;50120;53.250;8.702;2022-08-30T01:26:28;12.80;99.90
41965;DHT22;50120;53.250;8.702;2022-08-30T01:28:57;12.80;99.90
41965;DHT22;50120;53.250;8.702;2022-08-30T01:31:26;12.70;99.90
41965;DHT22;50120;53.250;8.702;2022-08-30T01:33:52;12.70;99.90
41965;DHT22;50120;53.250;8.702;2022-08-30T01:36:18;12.70;99.90
41965;DHT22;50120;53.250;8.702;2022-08-30T01:38:53;12.60;99.90
41965;DHT22;50120;53.250;8.702;2022-08-30T01:41:21;12.60;99.90
41965;DHT22;50120;53.250;8.702;2022-08-30T01:43:49;12.60;99.90
41965;DHT22;50120;53.250;8.702;2022-08-30T01:46:17;12.60;99.90
41965;DHT22;50120;53.250;8.702;2022-08-30T01:48:44;12.60;99.90
41965;DHT22;50120;53.250;8.702;2022-08-30T01:51:12;12.50;99.90
41965;DHT22;50120;53.250;8.702;2022-08-30T01:53:40;12.50;99.90
41965;DHT22;50120;53.250;8.702;2022-08-30T01:56:07;12.50;99.90
41965;DHT22;50120;53.250;8.702;2022-08-30T01:58:34;12.40;99.90
41965;DHT22;50120;53.250;8.702;2022-08-30T02:01:02;12.40;99.90
41965;DHT22;50120;53.250;8.702;2022-08-30T02:03:27;12.40;99.90
41965;DHT22;50120;53.250;8.702;2022-08-30T02:06:03;12.40;99.90
41965;DHT22;50120;53.250;8.702;2022-08-30T02:08:29;12.40;99.90
41965;DHT22;50120;53.250;8.702;2022-08-30T02:10:56;12.30;99.90
41965;DHT22;50120;53.250;8.702;2022-08-30T02:13:23;12.30;99.90
41965;DHT22;50120;53.250;8.702;2022-08-30T02:15:49;12.30;99.90
41965;DHT22;50120;53.250;8.702;2022-08-30T02:18:15;12.30;99.90
41965;DHT22;50120;53.250;8.702;2022-08-30T02:20:41;12.30;99.90
41965;DHT22;50120;53.250;8.702;2022-08-30T02:23:06;12.20;99.90
41965;DHT22;50120;53.250;8.702;2022-08-30T02:25:32;12.20;99.90
41965;DHT22;50120;53.250;8.702;2022-08-30T02:27:58;12.20;99.90
41965;DHT22;50120;53.250;8.702;2022-08-30T02:30:24;12.20;99.90
41965;DHT22;50120;53.250;8.702;2022-08-30T02:32:49;12.20;99.90
41965;DHT22;50120;53.250;8.702;2022-08-30T02:35:15;12.20;99.90
41965;DHT22;50120;53.250;8.702;2022-08-30T02:37:41;12.20;99.90
41965;DHT22;50120;53.250;8.702;2022-08-30T02:40:07;12.20;99.90
41965;DHT22;50120;53.250;8.702;2022-08-30T02:42:34;12.20;99.90
41965;DHT22;50120;53.250;8.702;2022-08-30T02:44:59;12.10;99.90
41965;DHT22;50120;53.250;8.702;2022-08-30T02:47:25;12.10;99.90
41965;DHT22;50120;53.250;8.702;2022-08-30T02:49:51;12.10;99.90
41965;DHT22;50120;53.250;8.702;2022-08-30T02:52:17;12.10;99.90
41965;DHT22;50120;53.250;8.702;2022-08-30T02:54:44;12.10;99.90
41965;DHT22;50120;53.250;8.702;2022-08-30T02:57:10;12.00;99.90
41965;DHT22;50120;53.250;8.702;2022-08-30T02:59:38;12.00;99.90
41965;DHT22;50120;53.250;8.702;2022-08-30T03:02:09;12.00;99.90
41965;DHT22;50120;53.250;8.702;2022-08-30T03:04:36;12.00;99.90
41965;DHT22;50120;53.250;8.702;2022-08-30T03:07:02;11.90;99.90
41965;DHT22;50120;53.250;8.702;2022-08-30T03:09:28;11.90;99.90
41965;DHT22;50120;53.250;8.702;2022-08-30T03:11:54;11.90;99.90
41965;DHT22;50120;53.250;8.702;2022-08-30T03:14:20;11.90;99.90
41965;DHT22;50120;53.250;8.702;2022-08-30T03:16:45;11.90;99.90
41965;DHT22;50120;53.250;8.702;2022-08-30T03:19:11;11.90;99.90
41965;DHT22;50120;53.250;8.702;2022-08-30T03:21:37;12.00;99.90
41965;DHT22;50120;53.250;8.702;2022-08-30T03:24:03;11.90;99.90
41965;DHT22;50120;53.250;8.702;2022-08-30T03:26:29;12.00;99.90
41965;DHT22;50120;53.250;8.702;2022-08-30T03:28:54;12.00;99.90
41965;DHT22;50120;53.250;8.702;2022-08-30T03:31:20;12.00;99.90
41965;DHT22;50120;53.250;8.702;2022-08-30T03:33:46;12.00;99.90
41965;DHT22;50120;53.250;8.702;2022-08-30T03:36:11;12.00;99.90
41965;DHT22;50120;53.250;8.702;2022-08-30T03:38:37;12.10;99.90
41965;DHT22;50120;53.250;8.702;2022-08-30T03:41:03;12.10;99.90
41965;DHT22;50120;53.250;8.702;2022-08-30T03:43:31;12.10;99.90
41965;DHT22;50120;53.250;8.702;2022-08-30T03:45:59;12.10;99.90
41965;DHT22;50120;53.250;8.702;2022-08-30T03:48:26;12.10;99.90
41965;DHT22;50120;53.250;8.702;2022-08-30T03:50:51;12.00;99.90
41965;DHT22;50120;53.250;8.702;2022-08-30T03:53:18;12.00;99.90
41965;DHT22;50120;53.250;8.702;2022-08-30T03:55:44;12.00;99.90
41965;DHT22;50120;53.250;8.702;2022-08-30T03:58:10;12.00;99.90
41965;DHT22;50120;53.250;8.702;2022-08-30T04:00:36;12.00;99.90
41965;DHT22;50120;53.250;8.702;2022-08-30T04:03:03;12.00;99.90
41965;DHT22;50120;53.250;8.702;2022-08-30T04:05:29;12.00;99.90
41965;DHT22;50120;53.250;8.702;2022-08-30T04:07:55;12.00;99.90
41965;DHT22;50120;53.250;8.702;2022-08-30T04:10:21;11.90;99.90
41965;DHT22;50120;53.250;8.702;2022-08-30T04:12:50;12.00;99.90
41965;DHT22;50120;53.250;8.702;2022-08-30T04:15:17;11.90;99.90
41965;DHT22;50120;53.250;8.702;2022-08-30T04:17:43;11.90;99.90
41965;DHT22;50120;53.250;8.702;2022-08-30T04:20:09;11.90;99.90
41965;DHT22;50120;53.250;8.702;2022-08-30T04:22:35;11.90;99.90
41965;DHT22;50120;53.250;8.702;2022-08-30T04:25:03;11.90;99.90
41965;DHT22;50120;53.250;8.702;2022-08-30T04:27:29;11.90;99.90
41965;DHT22;50120;53.250;8.702;2022-08-30T04:29:54;11.90;99.90
41965;DHT22;50120;53.250;8.702;2022-08-30T04:32:20;11.90;99.90
41965;DHT22;50120;53.250;8.702;2022-08-30T04:34:47;11.90;99.90
41965;DHT22;50120;53.250;8.702;2022-08-30T04:37:13;11.90;99.90
41965;DHT22;50120;53.250;8.702;2022-08-30T04:39:39;11.90;99.90
41965;DHT22;50120;53.250;8.702;2022-08-30T04:42:07;11.90;99.90
41965;DHT22;50120;53.250;8.702;2022-08-30T04:44:33;11.90;99.90
41965;DHT22;50120;53.250;8.702;2022-08-30T04:46:59;11.80;99.90
41965;DHT22;50120;53.250;8.702;2022-08-30T04:49:26;11.80;99.90
41965;DHT22;50120;53.250;8.702;2022-08-30T04:51:52;11.80;99.90
41965;DHT22;50120;53.250;8.702;2022-08-30T04:54:18;11.90;99.90
41965;DHT22;50120;53.250;8.702;2022-08-30T04:56:44;11.80;99.90
41965;DHT22;50120;53.250;8.702;2022-08-30T04:59:09;11.80;99.90
41965;DHT22;50120;53.250;8.702;2022-08-30T05:01:35;11.80;99.90
41965;DHT22;50120;53.250;8.702;2022-08-30T05:04:01;11.90;99.90
41965;DHT22;50120;53.250;8.702;2022-08-30T05:06:28;11.90;99.90
41965;DHT22;50120;53.250;8.702;2022-08-30T05:08:55;11.90;99.90
41965;DHT22;50120;53.250;8.702;2022-08-30T05:11:22;12.00;99.90
41965;DHT22;50120;53.250;8.702;2022-08-30T05:13:48;11.90;99.90
41965;DHT22;50120;53.250;8.702;2022-08-30T05:16:14;12.00;99.90
41965;DHT22;50120;53.250;8.702;2022-08-30T05:18:47;12.00;99.90
41965;DHT22;50120;53.250;8.702;2022-08-30T05:21:15;12.00;99.90
41965;DHT22;50120;53.250;8.702;2022-08-30T05:23:42;12.10;99.90
41965;DHT22;50120;53.250;8.702;2022-08-30T05:26:14;12.10;99.90
41965;DHT22;50120;53.250;8.702;2022-08-30T05:28:40;12.20;99.90
41965;DHT22;50120;53.250;8.702;2022-08-30T05:31:21;12.20;99.90
41965;DHT22;50120;53.250;8.702;2022-08-30T05:33:48;12.30;99.90
41965;DHT22;50120;53.250;8.702;2022-08-30T05:36:15;12.40;99.90
41965;DHT22;50120;53.250;8.702;2022-08-30T05:38:42;12.40;99.90
41965;DHT22;50120;53.250;8.702;2022-08-30T05:41:08;12.50;99.90
41965;DHT22;50120;53.250;8.702;2022-08-30T05:43:34;12.50;99.90
41965;DHT22;50120;53.250;8.702;2022-08-30T05:46:11;12.60;99.90
41965;DHT22;50120;53.250;8.702;2022-08-30T05:48:38;12.60;99.90
41965;DHT22;50120;53.250;8.702;2022-08-30T05:51:09;12.70;99.90
41965;DHT22;50120;53.250;8.702;2022-08-30T05:53:37;12.70;99.90
41965;DHT22;50120;53.250;8.702;2022-08-30T05:56:05;12.80;99.90
41965;DHT22;50120;53.250;8.702;2022-08-30T05:58:31;12.80;99.90
41965;DHT22;50120;53.250;8.702;2022-08-30T06:00:58;12.90;99.90
41965;DHT22;50120;53.250;8.702;2022-08-30T06:03:25;12.90;99.90
41965;DHT22;50120;53.250;8.702;2022-08-30T06:05:51;13.00;99.90
41965;DHT22;50120;53.250;8.702;2022-08-30T06:08:17;13.00;99.90
41965;DHT22;50120;53.250;8.702;2022-08-30T06:10:43;13.00;99.90
41965;DHT22;50120;53.250;8.702;2022-08-30T06:13:09;13.00;99.90
41965;DHT22;50120;53.250;8.702;2022-08-30T06:15:35;13.10;99.90
41965;DHT22;50120;53.250;8.702;2022-08-30T06:18:01;13.10;99.90
41965;DHT22;50120;53.250;8.702;2022-08-30T06:20:27;13.10;99.90
41965;DHT22;50120;53.250;8.702;2022-08-30T06:22:52;13.10;99.90
41965;DHT22;50120;53.250;8.702;2022-08-30T06:25:19;13.10;99.90
41965;DHT22;50120;53.250;8.702;2022-08-30T06:27:45;13.20;99.90
41965;DHT22;50120;53.250;8.702;2022-08-30T06:30:11;13.20;99.90
41965;DHT22;50120;53.250;8.702;2022-08-30T06:32:39;13.20;99.90
41965;DHT22;50120;53.250;8.702;2022-08-30T06:35:06;13.20;99.90
41965;DHT22;50120;53.250;8.702;2022-08-30T06:37:32;13.30;99.90
41965;DHT22;50120;53.250;8.702;2022-08-30T06:39:59;13.30;99.90
41965;DHT22;50120;53.250;8.702;2022-08-30T06:42:26;13.30;99.90
41965;DHT22;50120;53.250;8.702;2022-08-30T06:45:00;13.30;99.90
41965;DHT22;50120;53.250;8.702;2022-08-30T06:47:27;13.40;99.90
41965;DHT22;50120;53.250;8.702;2022-08-30T06:49:53;13.40;99.90
41965;DHT22;50120;53.250;8.702;2022-08-30T06:52:19;13.50;99.90
41965;DHT22;50120;53.250;8.702;2022-08-30T06:54:45;13.50;99.90
41965;DHT22;50120;53.250;8.702;2022-08-30T06:57:11;13.50;99.90
41965;DHT22;50120;53.250;8.702;2022-08-30T06:59:38;13.60;99.90
41965;DHT22;50120;53.250;8.702;2022-08-30T07:02:04;13.60;99.90
41965;DHT22;50120;53.250;8.702;2022-08-30T07:04:31;13.60;99.90
41965;DHT22;50120;53.250;8.702;2022-08-30T07:06:57;13.70;99.90
41965;DHT22;50120;53.250;8.702;2022-08-30T07:09:23;13.70;99.90
41965;DHT22;50120;53.250;8.702;2022-08-30T07:11:50;13.80;99.90
41965;DHT22;50120;53.250;8.702;2022-08-30T07:14:16;13.80;99.90
41965;DHT22;50120;53.250;8.702;2022-08-30T07:16:43;13.80;99.90
41965;DHT22;50120;53.250;8.702;2022-08-30T07:19:10;13.80;99.90
41965;DHT22;50120;53.250;8.702;2022-08-30T07:21:40;13.90;99.90
41965;DHT22;50120;53.250;8.702;2022-08-30T07:24:11;14.00;99.90
41965;DHT22;50120;53.250;8.702;2022-08-30T07:26:42;14.10;99.90
41965;DHT22;50120;53.250;8.702;2022-08-30T07:29:09;14.10;99.90
41965;DHT22;50120;53.250;8.702;2022-08-30T07:31:35;14.10;99.90
41965;DHT22;50120;53.250;8.702;2022-08-30T07:34:03;14.20;99.90
41965;DHT22;50120;53.250;8.702;2022-08-30T07:36:29;14.20;99.90
41965;DHT22;50120;53.250;8.702;2022-08-30T07:38:55;14.30;99.90
41965;DHT22;50120;53.250;8.702;2022-08-30T07:41:28;14.30;99.90
41965;DHT22;50120;53.250;8.702;2022-08-30T07:43:54;14.40;99.90
41965;DHT22;50120;53.250;8.702;2022-08-30T07:46:21;14.40;99.90
41965;DHT22;50120;53.250;8.702;2022-08-30T07:48:47;14.40;99.90
41965;DHT22;50120;53.250;8.702;2022-08-30T07:51:18;14.40;99.90
41965;DHT22;50120;53.250;8.702;2022-08-30T07:53:45;14.50;99.90
41965;DHT22;50120;53.250;8.702;2022-08-30T07:56:11;14.60;99.90
41965;DHT22;50120;53.250;8.702;2022-08-30T07:58:38;14.60;99.90
41965;DHT22;50120;53.250;8.702;2022-08-30T08:01:06;14.70;99.90
41965;DHT22;50120;53.250;8.702;2022-08-30T08:03:32;14.80;99.90
41965;DHT22;50120;53.250;8.702;2022-08-30T08:06:01;14.90;99.90
41965;DHT22;50120;53.250;8.702;2022-08-30T08:08:27;14.90;99.90
41965;DHT22;50120;53.250;8.702;2022-08-30T08:10:53;15.10;99.90
41965;DHT22;50120;53.250;8.702;2022-08-30T08:13:19;15.30;99.90
41965;DHT22;50120;53.250;8.702;2022-08-30T08:15:45;15.40;99.90
41965;DHT22;50120;53.250;8.702;2022-08-30T08:18:11;15.50;99.90
41965;DHT22;50120;53.250;8.702;2022-08-30T08:20:37;15.70;99.90
41965;DHT22;50120;53.250;8.702;2022-08-30T08:23:03;16.00;99.90
41965;DHT22;50120;53.250;8.702;2022-08-30T08:25:29;16.20;99.90
41965;DHT22;50120;53.250;8.702;2022-08-30T08:27:55;16.40;99.90
41965;DHT22;50120;53.250;8.702;2022-08-30T08:30:22;16.70;99.90
41965;DHT22;50120;53.250;8.702;2022-08-30T08:32:48;16.90;99.90
41965;DHT22;50120;53.250;8.702;2022-08-30T08:35:16;17.10;99.90
41965;DHT22;50120;53.250;8.702;2022-08-30T08:37:42;17.40;99.90
41965;DHT22;50120;53.250;8.702;2022-08-30T08:40:09;17.50;99.90
41965;DHT22;50120;53.250;8.702;2022-08-30T08:45:55;17.90;99.90
41965;DHT22;50120;53.250;8.702;2022-08-30T08:50:51;18.30;99.90
41965;DHT22;50120;53.250;8.702;2022-08-30T08:53:36;18.40;99.90
41965;DHT22;50120;53.250;8.702;2022-08-30T08:56:20;18.50;99.90
41965;DHT22;50120;53.250;8.702;2022-08-30T08:58:52;18.70;99.90
41965;DHT22;50120;53.250;8.702;2022-08-30T09:01:20;19.00;99.90
41965;DHT22;50120;53.250;8.702;2022-08-30T09:03:47;19.10;99.90
41965;DHT22;50120;53.250;8.702;2022-08-30T09:06:39;19.30;99.90
41965;DHT22;50120;53.250;8.702;2022-08-30T09:09:07;19.50;99.90
41965;DHT22;50120;53.250;8.702;2022-08-30T09:11:35;19.70;99.90
41965;DHT22;50120;53.250;8.702;2022-08-30T09:14:08;19.80;99.90
41965;DHT22;50120;53.250;8.702;2022-08-30T09:16:53;19.80;99.90
41965;DHT22;50120;53.250;8.702;2022-08-30T09:19:29;19.70;99.90
41965;DHT22;50120;53.250;8.702;2022-08-30T09:22:02;19.60;99.90
41965;DHT22;50120;53.250;8.702;2022-08-30T09:24:42;19.50;99.90
41965;DHT22;50120;53.250;8.702;2022-08-30T09:29:56;19.60;99.90
41965;DHT22;50120;53.250;8.702;2022-08-30T09:32:29;19.50;99.90
41965;DHT22;50120;53.250;8.702;2022-08-30T09:34:55;19.50;99.90
41965;DHT22;50120;53.250;8.702;2022-08-30T09:37:31;19.50;99.90
41965;DHT22;50120;53.250;8.702;2022-08-30T09:39:59;19.60;99.90
41965;DHT22;50120;53.250;8.702;2022-08-30T09:42:28;19.90;99.90
41965;DHT22;50120;53.250;8.702;2022-08-30T09:44:56;20.20;99.90
41965;DHT22;50120;53.250;8.702;2022-08-30T09:47:37;20.50;99.90
41965;DHT22;50120;53.250;8.702;2022-08-30T09:50:14;20.60;99.90
41965;DHT22;50120;53.250;8.702;2022-08-30T09:58:23;20.30;99.90
41965;DHT22;50120;53.250;8.702;2022-08-30T10:06:13;19.90;99.90
41965;DHT22;50120;53.250;8.702;2022-08-30T10:08:49;20.10;99.90
41965;DHT22;50120;53.250;8.702;2022-08-30T10:24:50;20.20;99.90
41965;DHT22;50120;53.250;8.702;2022-08-30T10:27:25;20.10;99.90
41965;DHT22;50120;53.250;8.702;2022-08-30T10:29:59;20.10;99.90
41965;DHT22;50120;53.250;8.702;2022-08-30T10:32:33;20.10;99.90
41965;DHT22;50120;53.250;8.702;2022-08-30T10:35:16;20.00;99.90
41965;DHT22;50120;53.250;8.702;2022-08-30T10:43:23;20.80;99.90
41965;DHT22;50120;53.250;8.702;2022-08-30T10:45:54;21.10;99.90
41965;DHT22;50120;53.250;8.702;2022-08-30T10:48:36;21.10;99.90
41965;DHT22;50120;53.250;8.702;2022-08-30T10:51:09;21.20;99.90
41965;DHT22;50120;53.250;8.702;2022-08-30T10:53:45;21.40;99.90
41965;DHT22;50120;53.250;8.702;2022-08-30T10:56:18;21.40;99.90
41965;DHT22;50120;53.250;8.702;2022-08-30T10:58:46;21.40;99.60
41965;DHT22;50120;53.250;8.702;2022-08-30T11:09:26;20.80;99.90
41965;DHT22;50120;53.250;8.702;2022-08-30T11:14:41;20.80;99.70
41965;DHT22;50120;53.250;8.702;2022-08-30T11:19:50;21.00;99.50
41965;DHT22;50120;53.250;8.702;2022-08-30T11:22:35;21.00;99.80
41965;DHT22;50120;53.250;8.702;2022-08-30T11:25:13;21.00;99.70
41965;DHT22;50120;53.250;8.702;2022-08-30T11:27:54;20.90;99.20
41965;DHT22;50120;53.250;8.702;2022-08-30T11:35:49;21.00;99.70
41965;DHT22;50120;53.250;8.702;2022-08-30T11:57:32;21.10;98.80
41965;DHT22;50120;53.250;8.702;2022-08-30T12:02:53;21.30;97.20
41965;DHT22;50120;53.250;8.702;2022-08-30T12:10:54;21.70;97.80
41965;DHT22;50120;53.250;8.702;2022-08-30T12:18:55;21.70;97.40
41965;DHT22;50120;53.250;8.702;2022-08-30T12:21:34;21.90;95.90
41965;DHT22;50120;53.250;8.702;2022-08-30T12:26:34;22.00;95.30
41965;DHT22;50120;53.250;8.702;2022-08-30T12:29:09;22.40;95.50
41965;DHT22;50120;53.250;8.702;2022-08-30T12:31:46;22.50;95.30
41965;DHT22;50120;53.250;8.702;2022-08-30T12:34:23;22.60;95.00
41965;DHT22;50120;53.250;8.702;2022-08-30T12:36:56;22.80;94.30
41965;DHT22;50120;53.250;8.702;2022-08-30T12:39:41;22.80;94.60
41965;DHT22;50120;53.250;8.702;2022-08-30T12:42:19;22.90;94.60
41965;DHT22;50120;53.250;8.702;2022-08-30T12:44:50;23.10;94.80
41965;DHT22;50120;53.250;8.702;2022-08-30T12:47:22;23.20;95.00
41965;DHT22;50120;53.250;8.702;2022-08-30T12:49:51;23.40;95.20
41965;DHT22;50120;53.250;8.702;2022-08-30T12:52:22;23.40;94.10
41965;DHT22;50120;53.250;8.702;2022-08-30T12:54:50;23.30;94.70
41965;DHT22;50120;53.250;8.702;2022-08-30T12:57:41;23.00;93.80
41965;DHT22;50120;53.250;8.702;2022-08-30T13:00:32;22.80;94.60
41965;DHT22;50120;53.250;8.702;2022-08-30T13:03:04;22.40;94.70
41965;DHT22;50120;53.250;8.702;2022-08-30T13:05:49;22.30;95.10
41965;DHT22;50120;53.250;8.702;2022-08-30T13:16:27;22.00;95.40
41965;DHT22;50120;53.250;8.702;2022-08-30T13:21:51;22.70;95.10
41965;DHT22;50120;53.250;8.702;2022-08-30T13:24:17;22.60;94.00
41965;DHT22;50120;53.250;8.702;2022-08-30T13:26:43;22.60;94.70
41965;DHT22;50120;53.250;8.702;2022-08-30T13:29:29;22.70;93.30
41965;DHT22;50120;53.250;8.702;2022-08-30T13:31:56;22.80;93.80
41965;DHT22;50120;53.250;8.702;2022-08-30T13:34:22;23.20;93.10
41965;DHT22;50120;53.250;8.702;2022-08-30T13:36:54;23.50;92.10
41965;DHT22;50120;53.250;8.702;2022-08-30T13:39:20;23.40;92.30
41965;DHT22;50120;53.250;8.702;2022-08-30T13:41:46;23.30;92.40
41965;DHT22;50120;53.250;8.702;2022-08-30T13:44:11;23.50;92.50
41965;DHT22;50120;53.250;8.702;2022-08-30T13:46:39;23.80;92.20
41965;DHT22;50120;53.250;8.702;2022-08-30T13:49:08;24.00;91.90
41965;DHT22;50120;53.250;8.702;2022-08-30T13:51:34;23.80;91.30
41965;DHT22;50120;53.250;8.702;2022-08-30T13:54:00;23.50;92.30
41965;DHT22;50120;53.250;8.702;2022-08-30T13:56:27;23.10;92.50
41965;DHT22;50120;53.250;8.702;2022-08-30T13:59:00;22.70;92.50
41965;DHT22;50120;53.250;8.702;2022-08-30T14:01:27;22.50;93.10
41965;DHT22;50120;53.250;8.702;2022-08-30T14:03:53;22.40;93.50
41965;DHT22;50120;53.250;8.702;2022-08-30T14:06:19;22.40;93.40
41965;DHT22;50120;53.250;8.702;2022-08-30T14:08:45;22.30;92.90
41965;DHT22;50120;53.250;8.702;2022-08-30T14:11:12;22.30;93.10
41965;DHT22;50120;53.250;8.702;2022-08-30T14:13:41;22.50;92.60
41965;DHT22;50120;53.250;8.702;2022-08-30T14:16:08;22.60;92.60
41965;DHT22;50120;53.250;8.702;2022-08-30T14:18:34;22.80;92.40
41965;DHT22;50120;53.250;8.702;2022-08-30T14:20:59;22.70;92.70
41965;DHT22;50120;53.250;8.702;2022-08-30T14:23:25;22.80;92.30
41965;DHT22;50120;53.250;8.702;2022-08-30T14:25:52;22.80;92.70
41965;DHT22;50120;53.250;8.702;2022-08-30T14:28:19;22.70;92.20
41965;DHT22;50120;53.250;8.702;2022-08-30T14:30:45;22.50;92.40
41965;DHT22;50120;53.250;8.702;2022-08-30T14:33:10;22.30;92.50
41965;DHT22;50120;53.250;8.702;2022-08-30T14:35:36;22.10;93.40
41965;DHT22;50120;53.250;8.702;2022-08-30T14:38:03;22.10;93.30
41965;DHT22;50120;53.250;8.702;2022-08-30T14:40:29;22.30;91.90
41965;DHT22;50120;53.250;8.702;2022-08-30T14:42:55;22.70;91.70
41965;DHT22;50120;53.250;8.702;2022-08-30T14:45:21;23.10;91.00
41965;DHT22;50120;53.250;8.702;2022-08-30T14:47:47;23.40;90.10
41965;DHT22;50120;53.250;8.702;2022-08-30T14:50:12;23.60;90.10
41965;DHT22;50120;53.250;8.702;2022-08-30T14:52:38;23.80;88.90
41965;DHT22;50120;53.250;8.702;2022-08-30T14:55:08;23.80;90.90
41965;DHT22;50120;53.250;8.702;2022-08-30T14:57:33;23.70;89.10
41965;DHT22;50120;53.250;8.702;2022-08-30T14:59:59;23.40;89.20
41965;DHT22;50120;53.250;8.702;2022-08-30T15:02:25;23.10;89.20
41965;DHT22;50120;53.250;8.702;2022-08-30T15:04:51;23.00;90.30
41965;DHT22;50120;53.250;8.702;2022-08-30T15:07:16;22.80;90.30
41965;DHT22;50120;53.250;8.702;2022-08-30T15:09:42;22.40;90.70
41965;DHT22;50120;53.250;8.702;2022-08-30T15:12:08;22.20;91.20
41965;DHT22;50120;53.250;8.702;2022-08-30T15:14:34;22.00;91.30
41965;DHT22;50120;53.250;8.702;2022-08-30T15:17:00;22.00;92.00
41965;DHT22;50120;53.250;8.702;2022-08-30T15:19:30;22.00;92.40
41965;DHT22;50120;53.250;8.702;2022-08-30T15:22:00;22.00;92.30
41965;DHT22;50120;53.250;8.702;2022-08-30T15:24:26;22.00;91.90
41965;DHT22;50120;53.250;8.702;2022-08-30T15:26:52;22.00;92.10
41965;DHT22;50120;53.250;8.702;2022-08-30T15:29:19;21.90;92.10
41965;DHT22;50120;53.250;8.702;2022-08-30T15:31:46;21.90;92.00
41965;DHT22;50120;53.250;8.702;2022-08-30T15:34:16;21.90;92.50
41965;DHT22;50120;53.250;8.702;2022-08-30T15:36:44;21.90;92.50
41965;DHT22;50120;53.250;8.702;2022-08-30T15:39:10;21.80;92.20
41965;DHT22;50120;53.250;8.702;2022-08-30T15:41:37;21.80;92.00
41965;DHT22;50120;53.250;8.702;2022-08-30T15:44:03;21.70;92.30
41965;DHT22;50120;53.250;8.702;2022-08-30T15:46:31;21.60;92.60
41965;DHT22;50120;53.250;8.702;2022-08-30T15:49:01;21.60;92.50
41965;DHT22;50120;53.250;8.702;2022-08-30T15:51:28;21.60;92.70
41965;DHT22;50120;53.250;8.702;2022-08-30T15:53:54;21.60;92.80
41965;DHT22;50120;53.250;8.702;2022-08-30T15:56:20;21.60;92.40
41965;DHT22;50120;53.250;8.702;2022-08-30T15:58:46;21.50;92.90
41965;DHT22;50120;53.250;8.702;2022-08-30T16:01:13;21.50;92.70
41965;DHT22;50120;53.250;8.702;2022-08-30T16:03:40;21.40;92.50
41965;DHT22;50120;53.250;8.702;2022-08-30T16:06:11;21.30;92.10
41965;DHT22;50120;53.250;8.702;2022-08-30T16:08:37;21.20;92.70
41965;DHT22;50120;53.250;8.702;2022-08-30T16:11:07;21.20;92.80
41965;DHT22;50120;53.250;8.702;2022-08-30T16:13:33;21.00;92.90
41965;DHT22;50120;53.250;8.702;2022-08-30T16:16:01;21.00;93.10
41965;DHT22;50120;53.250;8.702;2022-08-30T16:18:27;20.90;92.90
41965;DHT22;50120;53.250;8.702;2022-08-30T16:21:12;20.90;93.40
41965;DHT22;50120;53.250;8.702;2022-08-30T16:23:40;20.80;93.40
41965;DHT22;50120;53.250;8.702;2022-08-30T16:26:07;20.80;93.40
41965;DHT22;50120;53.250;8.702;2022-08-30T16:28:33;20.80;93.50
41965;DHT22;50120;53.250;8.702;2022-08-30T16:30:59;20.70;93.20
41965;DHT22;50120;53.250;8.702;2022-08-30T16:33:25;20.70;92.80
41965;DHT22;50120;53.250;8.702;2022-08-30T16:35:52;20.70;93.00
41965;DHT22;50120;53.250;8.702;2022-08-30T16:38:18;20.70;92.80
41965;DHT22;50120;53.250;8.702;2022-08-30T16:40:45;20.80;93.40
41965;DHT22;50120;53.250;8.702;2022-08-30T16:43:10;20.70;92.80
41965;DHT22;50120;53.250;8.702;2022-08-30T16:45:37;20.80;93.10
41965;DHT22;50120;53.250;8.702;2022-08-30T16:48:03;20.70;92.90
41965;DHT22;50120;53.250;8.702;2022-08-30T16:50:29;20.70;92.90
41965;DHT22;50120;53.250;8.702;2022-08-30T16:52:54;20.60;93.00
41965;DHT22;50120;53.250;8.702;2022-08-30T16:55:20;20.60;93.30
41965;DHT22;50120;53.250;8.702;2022-08-30T16:57:47;20.60;93.00
41965;DHT22;50120;53.250;8.702;2022-08-30T17:00:13;20.50;92.90
41965;DHT22;50120;53.250;8.702;2022-08-30T17:02:40;20.50;93.30
41965;DHT22;50120;53.250;8.702;2022-08-30T17:05:06;20.50;93.20
41965;DHT22;50120;53.250;8.702;2022-08-30T17:07:33;20.40;93.30
41965;DHT22;50120;53.250;8.702;2022-08-30T17:09:59;20.40;93.80
41965;DHT22;50120;53.250;8.702;2022-08-30T17:12:24;20.40;93.60
41965;DHT22;50120;53.250;8.702;2022-08-30T17:14:51;20.30;94.00
41965;DHT22;50120;53.250;8.702;2022-08-30T17:17:17;20.20;93.70
41965;DHT22;50120;53.250;8.702;2022-08-30T17:19:43;20.20;93.80
41965;DHT22;50120;53.250;8.702;2022-08-30T17:22:11;20.20;94.00